Time;durP1;ratioP1;P1;durP2;ratioP2;P2;SDS_P1;SDS_P2;PMS_P1;PMS_P2;Temp;Humidity;BMP_temperature;BMP_pressure;BME280_temperature;BME280_humidity;BME280_pressure;Samples;Min_cycle;Max_cycle;Signal;HPM_P1;HPM_P2
2022/02/06 00:01:43;;;;;;;1.25;1.13;;;;;;;4.55;100.00;100583.06;6292285;28;20404;-77
2022/02/06 00:04:46;;;;;;;4.63;1.52;;;;;;;4.51;100.00;100602.25;6292490;28;20040;-77
2022/02/06 00:07:49;;;;;;;1.35;1.23;;;;;;;4.53;100.00;100583.97;6297661;28;20048;-78
2022/02/06 00:10:50;;;;;;;1.73;1.63;;;;;;;4.53;100.00;100577.03;6297186;28;20045;-78
2022/02/06 00:13:51;;;;;;;2.65;1.95;;;;;;;4.54;100.00;100570.06;6297658;28;20055;-78
2022/02/06 00:16:54;;;;;;;2.75;1.30;;;;;;;4.52;100.00;100566.66;6297342;28;20051;-77
2022/02/06 00:19:55;;;;;;;1.60;1.17;;;;;;;4.53;100.00;100570.97;6297010;28;20063;-78
2022/02/06 00:23:00;;;;;;;9.63;1.58;;;;;;;4.51;100.00;100562.38;6297854;28;20546;-78
2022/02/06 00:26:07;;;;;;;3.25;1.65;;;;;;;4.51;100.00;100564.97;6298085;28;20186;-77
2022/02/06 00:29:19;;;;;;;1.58;1.40;;;;;;;4.53;100.00;100548.41;6296457;28;20059;-77
2022/02/06 00:32:32;;;;;;;2.33;1.63;;;;;;;4.49;100.00;100523.38;6296299;28;20094;-78
2022/02/06 00:35:56;;;;;;;6.10;1.92;;;;;;;4.50;100.00;100543.31;6297412;28;20133;-77
2022/02/06 00:39:05;;;;;;;2.78;1.65;;;;;;;4.48;100.00;100537.28;6298082;28;20048;-78
2022/02/06 00:42:07;;;;;;;4.22;1.52;;;;;;;4.46;100.00;100536.50;6296869;28;20049;-78
2022/02/06 00:45:09;;;;;;;5.88;1.52;;;;;;;4.49;100.00;100518.16;6302788;28;20056;-78
2022/02/06 00:48:12;;;;;;;2.78;1.50;;;;;;;4.49;100.00;100512.97;6302947;28;20055;-78
2022/02/06 00:51:17;;;;;;;3.55;1.70;;;;;;;4.47;100.00;100503.53;6303733;28;20491;-78
2022/02/06 00:54:19;;;;;;;2.75;1.42;;;;;;;4.43;100.00;100496.72;6303837;28;20419;-78
2022/02/06 00:57:20;;;;;;;7.03;2.00;;;;;;;4.45;100.00;100487.09;6304018;28;20056;-78
2022/02/06 01:00:23;;;;;;;1.98;1.30;;;;;;;4.43;100.00;100491.50;6288889;28;20041;-78
2022/02/06 01:03:26;;;;;;;3.30;2.30;;;;;;;4.45;100.00;100492.28;6304349;28;20044;-78
2022/02/06 01:06:27;;;;;;;4.28;1.55;;;;;;;4.49;100.00;100471.34;6303170;28;20052;-78
2022/02/06 01:09:28;;;;;;;2.17;1.70;;;;;;;4.44;100.00;100475.84;6302361;28;20044;-78
2022/02/06 01:12:33;;;;;;;3.85;2.08;;;;;;;4.46;100.00;100461.03;6302754;28;20530;-78
2022/02/06 01:15:35;;;;;;;7.07;2.10;;;;;;;4.49;100.00;100454.88;6302638;28;20051;-78
2022/02/06 01:18:42;;;;;;;2.45;1.83;;;;;;;4.46;100.00;100444.59;6302579;28;20496;-78
2022/02/06 01:21:50;;;;;;;5.40;2.00;;;;;;;4.46;100.00;100428.97;6302083;28;20051;-77
2022/02/06 01:25:00;;;;;;;3.22;1.70;;;;;;;4.45;100.00;100422.94;6302345;28;20056;-77
2022/02/06 01:28:05;;;;;;;2.60;1.60;;;;;;;4.44;100.00;100415.16;6301804;28;20488;-78
2022/02/06 01:31:23;;;;;;;2.22;1.80;;;;;;;4.49;100.00;100416.69;6282309;28;20056;-78
2022/02/06 01:34:34;;;;;;;2.97;1.80;;;;;;;4.47;100.00;100410.72;6277165;28;20057;-78
2022/02/06 01:37:40;;;;;;;2.92;1.73;;;;;;;4.48;100.00;100412.41;6277091;28;20049;-79
2022/02/06 01:40:54;;;;;;;2.92;1.73;;;;;;;4.50;100.00;100401.97;6276446;28;20041;-78
2022/02/06 01:44:00;;;;;;;4.53;1.60;;;;;;;4.53;100.00;100401.84;6277348;28;20049;-78
2022/02/06 01:57:27;;;;;;;1.75;1.40;;;;;;;4.62;100.00;100377.25;6276202;28;20049;-78
2022/02/06 02:00:57;;;;;;;2.05;1.30;;;;;;;4.61;100.00;100372.97;6286089;28;20045;-78
2022/02/06 02:04:07;;;;;;;1.67;1.50;;;;;;;4.68;100.00;100362.28;6301448;28;20515;-77
2022/02/06 02:14:08;;;;;;;1.80;1.05;;;;;;;4.68;100.00;100330.19;6283248;28;20049;-77
2022/02/06 02:24:12;;;;;;;1.92;1.10;;;;;;;4.68;100.00;100318.03;6299282;28;20079;-78
2022/02/06 02:27:23;;;;;;;2.53;1.17;;;;;;;4.75;100.00;100309.09;6301436;28;20045;-78
2022/02/06 02:30:50;;;;;;;1.02;0.90;;;;;;;4.69;100.00;100293.72;6292248;28;20078;-78
2022/02/06 02:44:34;;;;;;;1.80;1.05;;;;;;;4.72;100.00;100269.31;6275713;28;20052;-77
2022/02/06 02:47:22;;;;;;;1.40;1.00;;;;;;;4.77;100.00;100265.66;6275496;28;20084;-79
2022/02/06 02:50:24;;;;;;;1.77;1.00;;;;;;;4.79;100.00;100265.59;6299854;28;20110;-77
2022/02/06 02:53:32;;;;;;;1.17;0.85;;;;;;;4.77;100.00;100249.19;6301302;28;20190;-78
2022/02/06 02:56:41;;;;;;;1.40;1.17;;;;;;;4.79;100.00;100250.81;6300773;28;20109;-78
2022/02/06 02:59:55;;;;;;;1.65;0.95;;;;;;;4.77;100.00;100236.16;6298509;28;20055;-77
2022/02/06 03:03:07;;;;;;;1.55;1.05;;;;;;;4.81;100.00;100230.78;6283093;28;20045;-78
2022/02/06 03:06:10;;;;;;;0.82;0.80;;;;;;;4.81;100.00;100220.38;6274392;28;20048;-78
2022/02/06 03:09:12;;;;;;;1.00;0.90;;;;;;;4.80;100.00;100231.66;6275329;28;20055;-79
2022/02/06 03:12:21;;;;;;;1.15;1.05;;;;;;;4.83;100.00;100208.13;6274815;28;20132;-80
2022/02/06 03:15:34;;;;;;;0.82;0.70;;;;;;;4.84;100.00;100211.59;6274954;28;20049;-79
2022/02/06 03:18:44;;;;;;;1.92;1.50;;;;;;;4.85;100.00;100210.66;6275922;28;20053;-77
2022/02/06 03:21:46;;;;;;;1.58;1.15;;;;;;;4.89;100.00;100201.00;6273608;28;20081;-79
2022/02/06 03:24:55;;;;;;;2.03;1.13;;;;;;;4.90;100.00;100182.69;6274934;28;20056;-79
2022/02/06 03:27:57;;;;;;;2.60;1.35;;;;;;;4.90;100.00;100192.28;6274285;28;20045;-79
2022/02/06 03:30:58;;;;;;;4.05;1.40;;;;;;;4.91;100.00;100178.38;6274610;28;20094;-80
2022/02/06 03:34:00;;;;;;;2.25;1.02;;;;;;;4.98;100.00;100175.44;6274196;28;20063;-79
2022/02/06 03:37:01;;;;;;;5.35;1.13;;;;;;;4.99;100.00;100173.69;6274461;28;20061;-79
2022/02/06 03:40:08;;;;;;;5.40;1.20;;;;;;;4.99;100.00;100158.06;6273476;28;20053;-79
2022/02/06 03:43:14;;;;;;;1.88;1.08;;;;;;;4.97;100.00;100168.53;6274387;28;20045;-80
2022/02/06 03:46:22;;;;;;;1.98;0.98;;;;;;;4.98;100.00;100139.00;6274161;28;20056;-81
2022/02/06 03:49:29;;;;;;;2.42;1.20;;;;;;;5.03;100.00;100154.44;6273253;28;20056;-80
2022/02/06 03:52:36;;;;;;;0.85;0.63;;;;;;;5.01;100.00;100146.69;6273663;28;20494;-81
2022/02/06 03:55:39;;;;;;;0.80;0.75;;;;;;;5.09;100.00;100136.81;6273809;28;20045;-81
2022/02/06 03:58:40;;;;;;;1.13;0.70;;;;;;;5.10;100.00;100150.69;6276115;28;20136;-80
2022/02/06 04:01:41;;;;;;;0.68;0.68;;;;;;;5.14;100.00;100149.66;6296878;28;20047;-79
2022/02/06 04:04:43;;;;;;;2.28;1.20;;;;;;;5.11;100.00;100130.69;6296840;28;20411;-82
2022/02/06 04:07:46;;;;;;;0.60;0.60;;;;;;;5.16;100.00;100128.75;6298419;28;20503;-81
2022/02/06 04:10:51;;;;;;;1.02;0.70;;;;;;;5.16;100.00;100124.38;6292958;28;20054;-82
2022/02/06 04:14:05;;;;;;;0.93;0.90;;;;;;;5.14;100.00;100123.59;6298429;28;20505;-80
2022/02/06 04:17:18;;;;;;;0.73;0.68;;;;;;;5.16;100.00;100121.78;6297413;28;20052;-79
2022/02/06 04:20:20;;;;;;;0.60;0.60;;;;;;;5.12;100.00;100111.53;6301432;28;20059;-81
2022/02/06 04:23:21;;;;;;;0.60;0.60;;;;;;;5.15;100.00;100106.22;6302449;28;20063;-80
2022/02/06 04:26:24;;;;;;;1.08;0.52;;;;;;;5.17;100.00;100102.63;6303593;28;20048;-81
2022/02/06 04:29:25;;;;;;;0.80;0.80;;;;;;;5.19;100.00;100094.78;6291945;28;20060;-80
2022/02/06 04:32:27;;;;;;;0.70;0.70;;;;;;;5.11;100.00;100089.88;6278386;28;20420;-81
2022/02/06 04:35:32;;;;;;;0.95;0.80;;;;;;;5.15;100.00;100086.22;6277387;28;20057;-80
2022/02/06 04:38:46;;;;;;;0.98;0.70;;;;;;;5.20;100.00;100065.19;6277015;28;20420;-81
2022/02/06 04:42:01;;;;;;;1.65;1.17;;;;;;;5.24;100.00;100071.97;6276894;28;20051;-81
2022/02/06 04:49:01;;;;;;;1.23;1.10;;;;;;;5.22;100.00;100068.56;6276535;28;20082;-80
2022/02/06 04:55:48;;;;;;;3.20;0.85;;;;;;;5.21;100.00;100046.03;6263397;28;20076;-81
2022/02/06 05:12:52;;;;;;;0.60;0.60;;;;;;;5.31;100.00;100029.09;6301572;28;20045;-79
2022/02/06 05:16:00;;;;;;;1.10;0.95;;;;;;;5.27;100.00;100027.56;6300713;28;20422;-80
2022/02/06 05:22:39;;;;;;;1.17;0.93;;;;;;;5.27;100.00;100027.56;6285584;28;20689;-80
2022/02/06 05:26:12;;;;;;;1.92;1.10;;;;;;;5.26;100.00;100024.09;6291036;28;20389;-80
2022/02/06 05:29:25;;;;;;;1.63;1.08;;;;;;;5.33;100.00;100014.28;6288109;28;20116;-80
2022/02/06 05:32:35;;;;;;;0.90;0.68;;;;;;;5.38;100.00;100008.84;6286861;28;20389;-81
2022/02/06 05:35:38;;;;;;;2.45;0.63;;;;;;;5.33;100.00;99999.47;6288754;28;20044;-81
2022/02/06 05:38:40;;;;;;;2.70;1.08;;;;;;;5.34;100.00;99989.91;6285940;28;20052;-81
2022/02/06 05:41:41;;;;;;;0.95;0.88;;;;;;;5.41;100.00;100000.91;6288066;28;20052;-79
2022/02/06 05:44:47;;;;;;;2.15;0.85;;;;;;;5.39;100.00;99998.34;6287460;28;20045;-81
2022/02/06 05:47:50;;;;;;;1.08;0.90;;;;;;;5.40;100.00;99994.00;6287651;28;20052;-80
2022/02/06 05:50:52;;;;;;;1.23;1.13;;;;;;;5.42;100.00;100000.00;6288304;28;20044;-79
2022/02/06 05:53:54;;;;;;;1.33;0.77;;;;;;;5.42;100.00;99994.78;6300108;28;20049;-78
2022/02/06 05:56:55;;;;;;;0.70;0.70;;;;;;;5.46;100.00;99972.91;6300019;28;20063;-80
2022/02/06 05:59:56;;;;;;;0.70;0.60;;;;;;;5.41;100.00;99980.06;6291779;28;20443;-81
2022/02/06 06:03:00;;;;;;;0.70;0.70;;;;;;;5.44;100.00;99975.53;6296478;28;20051;-80
2022/02/06 06:06:01;;;;;;;0.88;0.57;;;;;;;5.53;100.00;99967.31;6299938;28;20048;-81
2022/02/06 06:09:05;;;;;;;0.80;0.70;;;;;;;5.51;100.00;99958.75;6300255;28;20056;-81
2022/02/06 06:12:08;;;;;;;1.05;0.60;;;;;;;5.47;100.00;99954.56;6299085;28;20041;-81
2022/02/06 06:15:10;;;;;;;4.63;0.80;;;;;;;5.47;100.00;99941.56;6299794;28;20059;-81
2022/02/06 06:18:14;;;;;;;0.63;0.60;;;;;;;5.44;100.00;99949.50;6299417;28;20053;-81
2022/02/06 06:21:17;;;;;;;0.50;0.40;;;;;;;5.52;100.00;99933.53;6300128;28;20048;-82
2022/02/06 06:24:19;;;;;;;0.40;0.35;;;;;;;5.47;100.00;99931.13;6300699;28;20486;-81
2022/02/06 06:27:20;;;;;;;4.30;0.65;;;;;;;5.50;100.00;99933.59;6300977;28;20045;-79
2022/02/06 06:30:22;;;;;;;1.27;0.50;;;;;;;5.48;100.00;99925.00;6299671;28;20048;-82
2022/02/06 06:33:25;;;;;;;1.63;0.45;;;;;;;5.49;100.00;99928.44;6292489;28;20424;-80
2022/02/06 06:36:30;;;;;;;1.70;0.73;;;;;;;5.50;100.00;99907.53;6299888;28;20052;-81
2022/02/06 06:39:37;;;;;;;1.35;0.45;;;;;;;5.51;100.00;99908.38;6299557;28;20055;-81
2022/02/06 06:42:39;;;;;;;1.42;0.45;;;;;;;5.48;100.00;99900.69;6298828;28;20121;-81
2022/02/06 06:45:40;;;;;;;3.45;0.55;;;;;;;5.50;100.00;99914.53;6295377;28;20048;-80
2022/02/06 06:48:42;;;;;;;0.30;0.22;;;;;;;5.50;100.00;99896.28;6300681;28;20055;-81
2022/02/06 06:51:44;;;;;;;0.80;0.43;;;;;;;5.50;100.00;99891.06;6295475;28;20476;-82
2022/02/06 06:54:50;;;;;;;0.20;0.20;;;;;;;5.46;100.00;99882.53;6293293;28;20044;-81
2022/02/06 06:57:56;;;;;;;0.95;0.65;;;;;;;5.52;100.00;99887.47;6298652;28;20057;-81
2022/02/06 07:01:10;;;;;;;0.50;0.50;;;;;;;5.54;100.00;99877.81;6278694;28;20057;-81
2022/02/06 07:04:12;;;;;;;2.10;0.82;;;;;;;5.55;100.00;99873.44;6274768;28;20056;-81
2022/02/06 07:07:14;;;;;;;0.30;0.25;;;;;;;5.56;100.00;99870.75;6274517;28;20059;-82
2022/02/06 07:10:15;;;;;;;2.28;0.47;;;;;;;5.52;100.00;99874.44;6273981;28;20045;-82
2022/02/06 07:13:18;;;;;;;0.28;0.28;;;;;;;5.58;100.00;99883.72;6274114;28;20044;-81
2022/02/06 07:16:19;;;;;;;0.45;0.45;;;;;;;5.64;100.00;99877.41;6273524;28;20053;-81
2022/02/06 07:19:22;;;;;;;0.52;0.52;;;;;;;5.61;100.00;99870.56;6298598;28;20056;-81
2022/02/06 07:22:23;;;;;;;4.07;0.50;;;;;;;5.65;100.00;99853.84;6298699;28;20048;-81
2022/02/06 07:25:26;;;;;;;2.00;0.57;;;;;;;5.66;100.00;99852.94;6297923;28;20048;-84
2022/02/06 07:28:29;;;;;;;0.57;0.57;;;;;;;5.67;100.00;99857.22;6292980;28;20118;-83
2022/02/06 07:31:32;;;;;;;0.60;0.50;;;;;;;5.66;100.00;99873.78;6273329;28;20052;-82
2022/02/06 07:34:35;;;;;;;2.15;0.63;;;;;;;5.71;100.00;99860.53;6274401;28;20154;-81
2022/02/06 07:37:37;;;;;;;0.65;0.50;;;;;;;5.69;100.00;99851.94;6275190;28;20056;-81
2022/02/06 07:40:38;;;;;;;0.73;0.45;;;;;;;5.67;100.00;99849.41;6274240;28;20053;-82
2022/02/06 07:43:40;;;;;;;0.63;0.60;;;;;;;5.72;100.00;99843.97;6273323;28;20052;-81
2022/02/06 07:46:44;;;;;;;0.60;0.50;;;;;;;5.76;100.00;99838.53;6274696;28;20060;-83
2022/02/06 07:49:50;;;;;;;0.40;0.40;;;;;;;5.75;100.00;99831.63;6277266;28;20106;-82
2022/02/06 07:52:51;;;;;;;0.30;0.30;;;;;;;5.80;100.00;99839.22;6280406;28;20094;-82
2022/02/06 07:55:52;;;;;;;0.73;0.50;;;;;;;5.78;100.00;99817.63;6283223;28;20684;-82
2022/02/06 07:58:54;;;;;;;0.60;0.50;;;;;;;5.75;100.00;99825.59;6283323;28;20043;-81
2022/02/06 08:01:55;;;;;;;0.30;0.30;;;;;;;5.79;100.00;99812.31;6291748;28;20543;-82
2022/02/06 08:04:59;;;;;;;0.43;0.43;;;;;;;5.84;100.00;99820.75;6282252;28;20045;-82
2022/02/06 08:08:01;;;;;;;0.22;0.22;;;;;;;5.87;100.00;99827.59;6294484;28;20768;-80
2022/02/06 08:11:03;;;;;;;0.50;0.43;;;;;;;5.89;100.00;99789.25;6276688;28;20049;-81
2022/02/06 08:14:07;;;;;;;1.52;0.45;;;;;;;5.91;100.00;99787.41;6297807;28;20052;-80
2022/02/06 08:17:08;;;;;;;0.57;0.57;;;;;;;5.95;100.00;99785.50;6292792;28;20056;-82
2022/02/06 08:20:13;;;;;;;0.45;0.45;;;;;;;5.95;100.00;99793.34;6294097;28;20396;-81
2022/02/06 08:23:14;;;;;;;0.73;0.50;;;;;;;5.95;100.00;99777.69;6296836;28;20052;-81
2022/02/06 08:26:16;;;;;;;0.52;0.50;;;;;;;6.00;100.00;99780.94;6297603;28;20526;-81
2022/02/06 08:29:18;;;;;;;0.65;0.55;;;;;;;6.04;100.00;99772.00;6294503;28;20044;-82
2022/02/06 08:32:21;;;;;;;3.03;0.63;;;;;;;6.02;100.00;99764.28;6297311;28;20055;-82
2022/02/06 08:35:24;;;;;;;0.77;0.70;;;;;;;6.04;100.00;99752.03;6298266;28;20052;-82
2022/02/06 08:38:26;;;;;;;0.32;0.30;;;;;;;6.03;100.00;99747.69;6298153;28;20053;-82
2022/02/06 08:41:27;;;;;;;0.57;0.57;;;;;;;6.05;100.00;99742.44;6292276;28;20048;-81
2022/02/06 08:44:29;;;;;;;0.30;0.28;;;;;;;6.04;100.00;99744.19;6297312;28;20045;-82
2022/02/06 08:47:31;;;;;;;0.85;0.63;;;;;;;6.04;100.00;99738.13;6292913;28;20045;-81
2022/02/06 08:50:34;;;;;;;1.55;0.57;;;;;;;6.05;100.00;99726.78;6296913;28;20572;-83
2022/02/06 08:53:35;;;;;;;0.50;0.30;;;;;;;6.06;100.00;99712.81;6287333;28;20049;-83
2022/02/06 08:56:40;;;;;;;2.25;0.70;;;;;;;6.10;100.00;99709.13;6290133;28;20056;-83
2022/02/06 08:59:42;;;;;;;0.55;0.50;;;;;;;6.18;100.00;99709.59;6278543;28;20848;-81
2022/02/06 09:02:45;;;;;;;0.65;0.57;;;;;;;6.25;100.00;99697.03;6288824;28;20041;-81
2022/02/06 09:05:47;;;;;;;0.30;0.30;;;;;;;6.21;100.00;99690.31;6291924;28;20484;-81
2022/02/06 09:08:54;;;;;;;0.50;0.32;;;;;;;6.21;100.00;99675.50;6285542;28;20040;-81
2022/02/06 09:11:57;;;;;;;1.20;0.70;;;;;;;6.18;100.00;99672.22;6286260;28;20061;-82
2022/02/06 09:14:58;;;;;;;2.33;0.60;;;;;;;6.21;100.00;99670.28;6287291;28;20127;-81
2022/02/06 09:18:01;;;;;;;3.70;0.55;;;;;;;6.22;100.00;99663.28;6286742;28;20056;-81
2022/02/06 09:21:03;;;;;;;1.58;0.75;;;;;;;6.24;100.00;99661.47;6295899;28;20047;-81
2022/02/06 09:24:06;;;;;;;0.52;0.52;;;;;;;6.31;100.00;99649.75;6300707;28;20055;-80
2022/02/06 09:27:09;;;;;;;1.00;0.88;;;;;;;6.36;100.00;99629.50;6278572;28;20531;-82
2022/02/06 09:30:15;;;;;;;0.80;0.60;;;;;;;6.34;100.00;99639.16;6289679;28;20048;-81
2022/02/06 09:36:18;;;;;;;1.65;1.05;;;;;;;6.32;100.00;99628.81;6298722;28;20078;-81
2022/02/06 09:39:19;;;;;;;2.08;1.13;;;;;;;6.30;100.00;99614.16;6299353;28;20048;-81
2022/02/06 09:42:21;;;;;;;0.82;0.63;;;;;;;6.25;100.00;99621.38;6301472;28;20503;-82
2022/02/06 09:45:28;;;;;;;1.77;1.08;;;;;;;6.21;100.00;99615.50;6300743;28;20052;-78
2022/02/06 09:48:30;;;;;;;1.10;0.57;;;;;;;6.21;100.00;99601.59;6300761;28;20058;-79
2022/02/06 09:51:34;;;;;;;0.80;0.70;;;;;;;6.19;100.00;99591.28;6301177;28;20055;-82
2022/02/06 09:54:35;;;;;;;1.10;1.00;;;;;;;6.21;100.00;99573.75;6300810;28;20044;-82
2022/02/06 09:57:50;;;;;;;2.05;1.08;;;;;;;6.27;100.00;99575.22;6301196;28;20044;-80
2022/02/06 10:00:51;;;;;;;0.95;0.80;;;;;;;6.27;100.00;99567.38;6288959;28;20048;-83
2022/02/06 10:04:02;;;;;;;1.00;0.70;;;;;;;6.26;100.00;99556.09;6294970;28;20048;-79
2022/02/06 10:07:08;;;;;;;0.98;0.90;;;;;;;6.28;100.00;99556.00;6288687;28;20063;-82
2022/02/06 10:10:11;;;;;;;2.03;1.20;;;;;;;6.27;100.00;99546.50;6291537;28;20044;-82
2022/02/06 10:13:12;;;;;;;1.63;1.13;;;;;;;6.28;100.00;99522.09;6287261;28;20056;-82
2022/02/06 10:16:17;;;;;;;0.80;0.80;;;;;;;6.29;100.00;99529.84;6299303;28;20052;-83
2022/02/06 10:19:18;;;;;;;1.45;1.20;;;;;;;6.30;100.00;99521.06;6300483;28;20049;-86
2022/02/06 10:22:40;;;;;;;2.78;1.17;;;;;;;6.28;100.00;99504.69;6295020;28;20697;-87
2022/02/06 10:25:46;;;;;;;1.10;1.00;;;;;;;6.31;100.00;99509.72;6300021;28;20503;-88
2022/02/06 10:28:58;;;;;;;1.00;1.00;;;;;;;6.31;100.00;99495.81;6288193;28;20041;-91
2022/02/06 10:32:03;;;;;;;1.90;1.38;;;;;;;6.29;100.00;99485.47;6299759;28;20058;-85
2022/02/06 10:35:11;;;;;;;1.70;1.60;;;;;;;6.31;100.00;99477.56;6299700;28;20466;-83
2022/02/06 10:38:21;;;;;;;3.53;0.88;;;;;;;6.32;100.00;99463.59;6299900;28;20059;-82
2022/02/06 10:41:24;;;;;;;1.58;1.42;;;;;;;6.29;100.00;99462.00;6294042;28;20052;-86
2022/02/06 10:44:30;;;;;;;1.58;1.00;;;;;;;6.29;100.00;99453.34;6299834;28;20067;-81
2022/02/06 10:47:33;;;;;;;4.03;1.52;;;;;;;6.31;100.00;99452.34;6298366;28;20583;-84
2022/02/06 10:50:36;;;;;;;2.38;1.38;;;;;;;6.25;100.00;99423.97;6298058;28;20048;-84
2022/02/06 10:53:57;;;;;;;1.92;1.45;;;;;;;6.30;100.00;99421.94;6298995;28;20044;-88
2022/02/06 10:57:01;;;;;;;0.80;0.80;;;;;;;6.33;100.00;99400.06;6281934;28;20067;-83
2022/02/06 11:00:06;;;;;;;1.27;1.17;;;;;;;6.31;100.00;99387.13;6298369;28;20293;-84
2022/02/06 11:03:22;;;;;;;1.10;1.00;;;;;;;6.28;100.00;99374.25;6299637;28;20040;-87
2022/02/06 11:06:32;;;;;;;0.80;0.80;;;;;;;6.29;100.00;99364.63;6299755;28;20058;-92
2022/02/06 11:09:34;;;;;;;1.13;1.00;;;;;;;6.31;100.00;99361.03;6299488;28;20523;-88
2022/02/06 11:12:36;;;;;;;1.13;0.80;;;;;;;6.30;100.00;99341.06;6280024;28;20045;-87
2022/02/06 11:15:45;;;;;;;1.10;0.82;;;;;;;6.35;100.00;99327.75;6278380;28;20071;-84
2022/02/06 11:18:50;;;;;;;0.90;0.88;;;;;;;6.38;100.00;99319.75;6287022;28;20047;-80
2022/02/06 11:22:08;;;;;;;1.40;0.90;;;;;;;6.40;100.00;99304.00;6288616;28;20423;-82
2022/02/06 11:25:11;;;;;;;0.93;0.88;;;;;;;6.35;100.00;99276.41;6296931;28;20150;-81
2022/02/06 11:28:13;;;;;;;2.13;1.10;;;;;;;6.35;100.00;99309.47;6291157;28;20060;-79
2022/02/06 11:31:15;;;;;;;1.40;0.93;;;;;;;6.32;100.00;99284.44;6284770;28;20053;-80
2022/02/06 11:34:19;;;;;;;1.77;1.08;;;;;;;6.31;100.00;99258.41;6289417;28;20063;-83
2022/02/06 11:44:32;;;;;;;0.70;0.70;;;;;;;6.28;100.00;99220.31;6285546;28;19920;-80
2022/02/06 11:47:38;;;;;;;2.17;1.08;;;;;;;6.25;100.00;99211.84;6287698;28;20044;-83
2022/02/06 11:50:47;;;;;;;1.00;0.80;;;;;;;6.24;100.00;99192.75;6283498;28;20048;-82
2022/02/06 11:53:49;;;;;;;;;;;;;;;6.21;100.00;99181.66;6279693;28;20552;-83
2022/02/06 11:57:24;;;;;;;0.85;0.70;;;;;;;6.18;100.00;99177.47;6274974;28;19928;-84
2022/02/06 12:00:25;;;;;;;1.25;0.70;;;;;;;6.23;100.00;99170.19;6288693;28;20045;-85
2022/02/06 12:03:27;;;;;;;1.23;1.05;;;;;;;6.20;100.00;99154.72;6298090;28;20131;-83
2022/02/06 12:06:30;;;;;;;0.82;0.80;;;;;;;6.17;100.00;99149.69;6297852;28;20055;-84
2022/02/06 12:09:32;;;;;;;0.65;0.65;;;;;;;6.22;100.00;99131.16;6298051;28;20098;-83
2022/02/06 12:12:35;;;;;;;2.03;0.63;;;;;;;6.18;100.00;99133.13;6285934;28;20045;-83
2022/02/06 12:15:48;;;;;;;0.90;0.57;;;;;;;6.14;100.00;99118.59;6284303;28;20049;-82
2022/02/06 12:18:51;;;;;;;0.77;0.77;;;;;;;6.15;100.00;99109.84;6287303;28;20171;-81
2022/02/06 12:21:53;;;;;;;0.68;0.60;;;;;;;6.12;100.00;99115.22;6279602;28;20076;-83
2022/02/06 12:25:17;;;;;;;0.82;0.50;;;;;;;6.09;100.00;99090.19;6298207;28;20044;-88
2022/02/06 12:28:30;;;;;;;0.57;0.57;;;;;;;6.06;100.00;99098.19;6299839;28;20483;-81
2022/02/06 12:31:33;;;;;;;0.60;0.60;;;;;;;6.04;100.00;99091.38;6291619;28;20045;-82
2022/02/06 12:36:54;;;;;;;3.33;0.60;;;;;;;6.03;100.00;99081.91;6297451;28;20189;-82
2022/02/06 12:37:59;;;;;;;0.70;0.45;;;;;;;6.01;100.00;99071.56;6272264;28;20049;-83
2022/02/06 12:41:16;;;;;;;0.40;0.40;;;;;;;6.04;100.00;99063.56;6294438;28;20071;-81
2022/02/06 12:44:27;;;;;;;0.50;0.50;;;;;;;5.98;100.00;99057.88;6283789;28;20053;-83
2022/02/06 12:47:30;;;;;;;0.75;0.57;;;;;;;5.95;100.00;99055.44;6287032;28;20048;-82
2022/02/06 12:50:34;;;;;;;0.40;0.40;;;;;;;5.91;100.00;99039.16;6289010;28;20048;-82
2022/02/06 12:53:36;;;;;;;2.67;0.30;;;;;;;5.91;100.00;99048.75;6288502;28;20045;-80
2022/02/06 12:56:39;;;;;;;0.40;0.40;;;;;;;5.89;100.00;99040.16;6282505;28;20049;-83
2022/02/06 12:59:43;;;;;;;0.90;0.52;;;;;;;5.87;100.00;99047.25;6285703;28;20519;-82
2022/02/06 13:02:44;;;;;;;0.38;0.38;;;;;;;5.85;100.00;99032.50;6285323;28;20061;-83
2022/02/06 13:05:50;;;;;;;2.60;0.30;;;;;;;5.85;100.00;99034.28;6292567;28;20045;-81
2022/02/06 13:08:52;;;;;;;1.23;1.13;;;;;;;5.81;100.00;99033.66;6292864;28;20435;-82
2022/02/06 13:11:56;;;;;;;0.28;0.20;;;;;;;5.81;100.00;99045.84;6284485;28;20484;-80
2022/02/06 13:15:18;;;;;;;0.25;0.25;;;;;;;5.80;100.00;99044.16;6294448;28;20132;-83
2022/02/06 13:18:45;;;;;;;0.10;0.10;;;;;;;5.76;100.00;99042.66;6283830;28;20045;-81
2022/02/06 13:22:03;;;;;;;0.30;0.22;;;;;;;5.78;100.00;99059.06;6297426;28;20052;-82
2022/02/06 13:25:23;;;;;;;0.22;0.22;;;;;;;5.79;100.00;99058.97;6291364;28;20049;-81
2022/02/06 13:28:40;;;;;;;0.10;0.10;;;;;;;5.79;100.00;99103.28;6294088;28;20511;-85
2022/02/06 13:32:02;;;;;;;0.10;0.10;;;;;;;4.98;100.00;99191.31;6294682;28;20052;-83
2022/02/06 13:35:21;;;;;;;0.38;0.10;;;;;;;4.22;100.00;99174.63;6300237;28;20052;-83
2022/02/06 13:38:22;;;;;;;0.00;0.00;;;;;;;3.79;100.00;99154.31;6292836;28;20041;-81
2022/02/06 13:41:31;;;;;;;0.17;0.13;;;;;;;3.60;100.00;99165.72;6286237;28;20496;-83
2022/02/06 13:44:34;;;;;;;0.13;0.13;;;;;;;3.62;100.00;99159.53;6296510;28;20515;-83
2022/02/06 13:47:37;;;;;;;0.30;0.30;;;;;;;3.61;100.00;99155.25;6296869;28;20048;-84
2022/02/06 13:50:44;;;;;;;1.85;0.65;;;;;;;3.70;100.00;99172.13;6287363;28;20136;-80
2022/02/06 13:53:54;;;;;;;0.10;0.10;;;;;;;3.68;100.00;99160.97;6285045;28;20043;-83
2022/02/06 13:56:59;;;;;;;0.77;0.40;;;;;;;3.67;100.00;99146.31;6291654;28;20086;-83
2022/02/06 14:00:09;;;;;;;0.10;0.10;;;;;;;3.66;100.00;99153.25;6288416;28;20079;-82
2022/02/06 14:03:13;;;;;;;0.25;0.25;;;;;;;3.67;100.00;99152.34;6296712;28;20045;-83
2022/02/06 14:06:17;;;;;;;0.73;0.38;;;;;;;3.66;100.00;99149.84;6285249;28;20049;-83
2022/02/06 14:09:27;;;;;;;0.10;0.10;;;;;;;3.61;100.00;99157.84;6288616;28;20056;-83
2022/02/06 14:12:28;;;;;;;0.10;0.10;;;;;;;3.65;100.00;99169.78;6291308;28;20071;-82
2022/02/06 14:15:30;;;;;;;0.10;0.10;;;;;;;3.67;100.00;99174.88;6293980;28;20044;-82
2022/02/06 14:18:33;;;;;;;0.32;0.32;;;;;;;3.80;100.00;99181.97;6288184;28;20049;-83
2022/02/06 14:21:42;;;;;;;0.25;0.20;;;;;;;3.85;100.00;99189.53;6285802;28;20522;-82
2022/02/06 14:24:54;;;;;;;0.20;0.20;;;;;;;3.83;100.00;99187.94;6288650;28;20049;-83
2022/02/06 14:27:56;;;;;;;0.00;0.00;;;;;;;3.85;100.00;99181.75;6288597;28;20412;-83
2022/02/06 14:30:58;;;;;;;0.10;0.10;;;;;;;3.93;100.00;99195.19;6291780;28;20052;-83
2022/02/06 14:34:15;;;;;;;0.00;0.00;;;;;;;3.97;100.00;99175.09;6283175;28;20048;-83
2022/02/06 14:37:20;;;;;;;0.45;0.20;;;;;;;3.95;100.00;99176.91;6290374;28;20036;-84
2022/02/06 14:40:35;;;;;;;0.35;0.35;;;;;;;4.00;100.00;99169.75;6291578;28;20048;-82
2022/02/06 14:43:39;;;;;;;1.95;0.35;;;;;;;4.04;100.00;99181.63;6286450;28;20059;-83
2022/02/06 14:46:42;;;;;;;2.00;0.17;;;;;;;4.05;100.00;99184.19;6280191;28;20044;-82
2022/02/06 14:49:46;;;;;;;2.50;0.68;;;;;;;4.05;100.00;99178.13;6282825;28;20041;-82
2022/02/06 14:52:48;;;;;;;0.73;0.47;;;;;;;4.11;100.00;99185.59;6284987;28;20048;-82
2022/02/06 14:55:51;;;;;;;0.10;0.10;;;;;;;4.16;100.00;99180.16;6283779;28;20116;-81
2022/02/06 14:58:52;;;;;;;0.10;0.10;;;;;;;4.14;100.00;99192.44;6283228;28;20049;-82
2022/02/06 15:01:54;;;;;;;0.00;0.00;;;;;;;4.18;100.00;99196.50;6278141;28;20040;-84
2022/02/06 15:04:58;;;;;;;0.43;0.10;;;;;;;4.20;100.00;99197.28;6285944;28;20105;-82
2022/02/06 15:08:02;;;;;;;0.20;0.20;;;;;;;4.28;100.00;99200.34;6285624;28;20056;-84
2022/02/06 15:11:03;;;;;;;0.47;0.00;;;;;;;4.46;100.00;99232.34;6285281;28;20048;-84
2022/02/06 15:14:05;;;;;;;1.02;0.20;;;;;;;4.63;100.00;99218.41;6288440;28;20398;-83
2022/02/06 15:17:11;;;;;;;0.10;0.10;;;;;;;4.65;100.00;99222.63;6285456;28;20060;-85
2022/02/06 15:20:13;;;;;;;0.22;0.20;;;;;;;4.68;100.00;99252.84;6287026;28;20048;-84
2022/02/06 15:23:16;;;;;;;0.10;0.10;;;;;;;4.68;100.00;99256.31;6286745;28;20048;-82
2022/02/06 15:26:18;;;;;;;0.05;0.05;;;;;;;4.75;100.00;99251.59;6277718;28;20044;-84
2022/02/06 15:29:20;;;;;;;0.00;0.00;;;;;;;4.78;100.00;99251.44;6286438;28;20041;-83
2022/02/06 15:32:22;;;;;;;0.38;0.25;;;;;;;4.81;100.00;99262.53;6282392;28;20056;-85
2022/02/06 15:35:24;;;;;;;0.25;0.10;;;;;;;4.91;100.00;99260.28;6277081;28;20040;-84
2022/02/06 15:38:29;;;;;;;3.60;0.25;;;;;;;4.93;100.00;99266.22;6287202;28;20052;-83
2022/02/06 15:41:37;;;;;;;0.15;0.13;;;;;;;4.93;100.00;99239.34;6286199;28;20072;-84